createdAt,value
2022-11-27T00:00:35.358Z,17.30
2022-11-27T00:03:01.741Z,17.89
2022-11-27T00:05:28.090Z,17.35
2022-11-27T00:07:54.374Z,15.65
2022-11-27T00:10:20.684Z,15.40
2022-11-27T00:12:46.932Z,15.57
2022-11-27T00:15:17.045Z,16.43
2022-11-27T00:17:43.610Z,16.36
2022-11-27T00:20:09.859Z,16.55
2022-11-27T00:22:36.097Z,15.85
2022-11-27T00:25:02.365Z,15.55
2022-11-27T00:27:28.608Z,14.77
2022-11-27T00:29:54.899Z,14.89
2022-11-27T00:32:21.143Z,14.47
2022-11-27T00:34:47.396Z,15.32
2022-11-27T00:37:13.733Z,14.98
2022-11-27T00:39:40.024Z,15.25
2022-11-27T00:42:06.276Z,14.28
2022-11-27T00:44:32.510Z,13.34
2022-11-27T00:46:58.775Z,13.53
2022-11-27T00:49:25.073Z,13.62
2022-11-27T00:51:51.322Z,13.55
2022-11-27T00:54:17.578Z,13.47
2022-11-27T00:56:43.808Z,13.16
2022-11-27T00:59:10.058Z,13.10
2022-11-27T01:01:36.339Z,13.92
2022-11-27T01:04:02.658Z,14.90
2022-11-27T01:06:28.934Z,14.96
2022-11-27T01:08:55.190Z,14.90
2022-11-27T01:11:21.449Z,15.23
2022-11-27T01:13:47.724Z,15.83
2022-11-27T01:16:14.029Z,15.43
2022-11-27T01:18:40.322Z,15.88
2022-11-27T01:21:06.589Z,15.30
2022-11-27T01:23:32.847Z,16.34
2022-11-27T01:25:59.113Z,16.25
2022-11-27T01:28:25.368Z,16.76
2022-11-27T01:30:51.767Z,17.11
2022-11-27T01:33:18.116Z,17.71
2022-11-27T01:35:44.380Z,18.54
2022-11-27T01:38:10.632Z,18.68
2022-11-27T01:40:36.881Z,19.67
2022-11-27T01:43:03.131Z,19.91
2022-11-27T01:45:29.386Z,19.61
2022-11-27T01:47:55.625Z,19.38
2022-11-27T01:50:21.897Z,19.67
2022-11-27T01:52:48.141Z,20.33
2022-11-27T01:55:14.395Z,20.19
2022-11-27T01:57:40.664Z,20.40
2022-11-27T02:00:06.919Z,20.46
2022-11-27T02:02:33.226Z,20.79
2022-11-27T02:04:59.529Z,21.86
2022-11-27T02:07:25.836Z,21.76
2022-11-27T02:09:52.161Z,21.15
2022-11-27T02:12:18.421Z,20.61
2022-11-27T02:14:44.698Z,20.32
2022-11-27T02:17:10.946Z,21.43
2022-11-27T02:19:37.187Z,20.68
2022-11-27T02:22:03.425Z,21.44
2022-11-27T02:24:29.789Z,20.21
2022-11-27T02:26:56.068Z,18.93
2022-11-27T02:29:22.318Z,19.74
2022-11-27T02:31:48.617Z,19.43
2022-11-27T02:34:14.935Z,18.51
2022-11-27T02:36:41.199Z,19.08
2022-11-27T02:39:07.497Z,18.76
2022-11-27T02:41:33.733Z,18.20
2022-11-27T02:43:59.987Z,17.99
2022-11-27T02:46:26.304Z,17.68
2022-11-27T02:48:52.605Z,17.98
2022-11-27T02:51:18.846Z,17.93
2022-11-27T02:53:45.108Z,18.91
2022-11-27T02:56:11.362Z,18.42
2022-11-27T02:58:37.629Z,19.08
2022-11-27T03:01:03.896Z,19.26
2022-11-27T03:03:30.177Z,18.10
2022-11-27T03:05:56.445Z,19.30
2022-11-27T03:08:22.707Z,18.97
2022-11-27T03:10:48.969Z,19.03
2022-11-27T03:13:15.236Z,17.69
2022-11-27T03:15:41.559Z,18.02
2022-11-27T03:18:07.862Z,17.56
2022-11-27T03:20:34.098Z,18.20
2022-11-27T03:23:00.457Z,18.27
2022-11-27T03:25:26.713Z,18.32
2022-11-27T03:27:52.998Z,17.43
2022-11-27T03:30:19.334Z,17.26
2022-11-27T03:32:45.573Z,16.65
2022-11-27T03:35:11.815Z,16.37
2022-11-27T03:37:38.068Z,17.66
2022-11-27T03:40:04.328Z,17.43
2022-11-27T03:42:30.581Z,18.66
2022-11-27T03:44:56.844Z,18.51
2022-11-27T03:47:23.143Z,18.73
2022-11-27T03:49:49.454Z,18.03
2022-11-27T03:52:15.717Z,18.05
2022-11-27T03:54:42.221Z,16.71
2022-11-27T03:57:08.738Z,16.59
2022-11-27T03:59:34.998Z,15.91
2022-11-27T04:02:01.320Z,14.65
2022-11-27T04:04:27.642Z,14.20
2022-11-27T04:06:53.893Z,13.77
2022-11-27T04:09:20.131Z,13.53
2022-11-27T04:11:46.366Z,13.93
2022-11-27T04:14:12.607Z,13.47
2022-11-27T04:16:38.862Z,13.58
2022-11-27T04:19:05.160Z,12.92
2022-11-27T04:21:31.416Z,13.75
2022-11-27T04:23:57.662Z,14.49
2022-11-27T04:26:23.901Z,14.41
2022-11-27T04:28:50.137Z,15.00
2022-11-27T04:31:16.437Z,14.33
2022-11-27T04:33:42.761Z,14.14
2022-11-27T04:36:09.005Z,14.05
2022-11-27T04:38:35.261Z,13.63
2022-11-27T04:41:01.502Z,13.22
2022-11-27T04:43:27.758Z,13.59
2022-11-27T04:45:53.993Z,13.62
2022-11-27T04:48:20.240Z,13.63
2022-11-27T04:50:46.499Z,14.15
2022-11-27T04:53:12.769Z,12.72
2022-11-27T04:55:39.012Z,12.75
2022-11-27T04:58:05.304Z,12.52
2022-11-27T05:00:31.595Z,12.30
2022-11-27T05:02:57.943Z,11.89
2022-11-27T05:05:24.273Z,11.80
2022-11-27T05:07:50.568Z,12.41
2022-11-27T05:10:16.888Z,12.45
2022-11-27T05:12:43.198Z,13.18
2022-11-27T05:15:09.454Z,12.44
2022-11-27T05:17:35.685Z,13.49
2022-11-27T05:20:01.948Z,13.42
2022-11-27T05:22:28.191Z,13.09
2022-11-27T05:24:54.429Z,14.20
2022-11-27T05:27:20.666Z,14.31
2022-11-27T05:29:46.910Z,14.78
2022-11-27T05:32:13.190Z,14.54
2022-11-27T05:34:39.899Z,16.25
2022-11-27T05:37:06.296Z,16.17
2022-11-27T05:39:32.553Z,16.37
2022-11-27T05:41:58.804Z,16.23
2022-11-27T05:44:25.045Z,16.79
2022-11-27T05:46:51.381Z,17.37
2022-11-27T05:49:17.661Z,15.38
2022-11-27T05:51:50.467Z,16.60
2022-11-27T05:54:17.395Z,17.57
2022-11-27T05:56:43.648Z,17.23
2022-11-27T05:59:09.890Z,17.66
2022-11-27T06:01:36.166Z,15.82
2022-11-27T06:04:02.427Z,16.37
2022-11-27T06:06:28.685Z,17.79
2022-11-27T06:08:54.936Z,18.60
2022-11-27T06:11:21.196Z,17.49
2022-11-27T06:13:47.441Z,13.32
2022-11-27T06:16:13.730Z,12.75
2022-11-27T06:18:40.027Z,12.34
2022-11-27T06:21:06.277Z,12.01
2022-11-27T06:23:32.529Z,12.25
2022-11-27T06:25:58.774Z,12.79
2022-11-27T06:28:25.028Z,13.56
2022-11-27T06:30:51.265Z,14.22
2022-11-27T06:33:17.522Z,13.39
2022-11-27T06:35:43.775Z,13.73
2022-11-27T06:38:10.024Z,13.12
2022-11-27T06:40:36.273Z,13.50
2022-11-27T06:43:02.528Z,13.57
2022-11-27T06:45:28.832Z,14.51
2022-11-27T06:47:55.097Z,14.63
2022-11-27T06:50:21.346Z,14.92
2022-11-27T06:52:47.582Z,15.58
2022-11-27T06:55:13.834Z,17.40
2022-11-27T06:57:40.087Z,17.43
2022-11-27T07:00:06.492Z,17.67
2022-11-27T07:02:32.778Z,16.52
2022-11-27T07:04:59.083Z,15.44
2022-11-27T07:07:25.410Z,15.28
2022-11-27T07:09:51.710Z,15.87
2022-11-27T07:12:17.960Z,16.33
2022-11-27T07:14:44.201Z,13.78
2022-11-27T07:17:10.434Z,13.35
2022-11-27T07:19:36.673Z,14.43
2022-11-27T07:22:03.992Z,14.21
2022-11-27T07:24:30.245Z,14.16
2022-11-27T07:26:56.497Z,14.40
2022-11-27T07:29:22.764Z,14.24
2022-11-27T07:31:49.076Z,13.71
2022-11-27T07:34:21.178Z,12.79
2022-11-27T07:36:48.027Z,12.81
2022-11-27T07:39:14.291Z,16.63
2022-11-27T07:41:40.553Z,16.89
2022-11-27T07:44:06.820Z,15.76
2022-11-27T07:46:33.076Z,15.23
2022-11-27T07:48:59.327Z,15.32
2022-11-27T07:51:25.589Z,15.52
2022-11-27T07:53:51.913Z,15.54
2022-11-27T07:56:18.241Z,15.80
2022-11-27T07:58:44.482Z,16.23
2022-11-27T08:01:10.850Z,15.72
2022-11-27T08:03:37.161Z,16.33
2022-11-27T08:06:03.410Z,19.28
2022-11-27T08:08:29.649Z,20.64
2022-11-27T08:10:55.904Z,15.83
2022-11-27T08:13:22.146Z,15.36
2022-11-27T08:15:48.402Z,15.95
2022-11-27T08:18:14.683Z,15.35
2022-11-27T08:20:40.945Z,15.57
2022-11-27T08:23:07.203Z,17.40
2022-11-27T08:25:33.459Z,17.85
2022-11-27T08:27:59.713Z,18.02
2022-11-27T08:30:26.132Z,18.06
2022-11-27T08:32:52.488Z,17.11
2022-11-27T08:35:18.742Z,16.79
2022-11-27T08:37:45.203Z,17.56
2022-11-27T08:40:11.447Z,17.16
2022-11-27T08:42:37.682Z,17.87
2022-11-27T08:45:03.925Z,17.95
2022-11-27T08:47:30.161Z,18.12
2022-11-27T08:49:56.401Z,18.50
2022-11-27T08:52:22.638Z,17.06
2022-11-27T08:54:51.976Z,17.51
2022-11-27T08:57:22.265Z,17.59
2022-11-27T08:59:48.518Z,17.97
2022-11-27T09:02:14.763Z,18.70
2022-11-27T09:04:41.218Z,18.17
2022-11-27T09:07:07.619Z,17.61
2022-11-27T09:09:33.866Z,17.58
2022-11-27T09:12:00.120Z,17.63
2022-11-27T09:14:26.358Z,16.78
2022-11-27T09:16:52.652Z,16.36
2022-11-27T09:19:18.922Z,17.20
2022-11-27T09:21:45.193Z,16.29
2022-11-27T09:24:11.435Z,16.34
2022-11-27T09:26:37.688Z,16.19
2022-11-27T09:29:03.929Z,16.08
2022-11-27T09:31:30.250Z,16.40
2022-11-27T09:33:56.558Z,15.77
2022-11-27T09:36:22.812Z,15.24
2022-11-27T09:38:49.057Z,15.66
2022-11-27T09:41:15.312Z,16.37
2022-11-27T09:43:41.557Z,16.25
2022-11-27T09:46:07.836Z,15.56
2022-11-27T09:48:34.119Z,16.51
2022-11-27T09:51:00.352Z,17.02
2022-11-27T09:53:26.585Z,16.75
2022-11-27T09:55:52.841Z,16.72
2022-11-27T09:58:19.095Z,16.53
2022-11-27T10:00:45.333Z,17.15
2022-11-27T10:03:11.735Z,16.70
2022-11-27T10:05:38.044Z,16.65
2022-11-27T10:08:06.924Z,17.08
2022-11-27T10:10:33.590Z,18.12
2022-11-27T10:12:59.865Z,17.64
2022-11-27T10:15:26.119Z,17.63
2022-11-27T10:17:52.365Z,17.56
2022-11-27T10:20:18.609Z,17.51
2022-11-27T10:22:44.846Z,17.27
2022-11-27T10:25:11.089Z,17.25
2022-11-27T10:27:37.331Z,18.05
2022-11-27T10:30:03.593Z,17.60
2022-11-27T10:35:16.083Z,16.98
2022-11-27T10:37:42.325Z,17.37
2022-11-27T10:40:08.581Z,17.20
2022-11-27T10:42:34.829Z,16.85
2022-11-27T10:45:01.061Z,16.76
2022-11-27T10:47:30.889Z,16.84
2022-11-27T10:49:59.676Z,16.89
2022-11-27T10:52:25.940Z,17.16
2022-11-27T10:54:52.198Z,16.88
2022-11-27T10:57:18.456Z,16.88
2022-11-27T10:59:44.690Z,16.21
2022-11-27T11:02:10.984Z,16.95
2022-11-27T11:04:38.623Z,16.06
2022-11-27T11:07:05.088Z,15.79
2022-11-27T11:09:31.325Z,16.88
2022-11-27T11:11:57.559Z,16.70
2022-11-27T11:14:23.820Z,16.72
2022-11-27T11:16:50.141Z,17.26
2022-11-27T11:19:16.432Z,16.95
2022-11-27T11:21:42.674Z,16.83
2022-11-27T11:24:08.924Z,16.64
2022-11-27T11:26:35.187Z,16.80
2022-11-27T11:29:01.443Z,16.92
2022-11-27T11:31:27.748Z,16.44
2022-11-27T11:33:54.092Z,16.79
2022-11-27T11:36:20.363Z,16.38
2022-11-27T11:38:46.620Z,16.97
2022-11-27T11:41:12.862Z,16.68
2022-11-27T11:43:39.218Z,16.39
2022-11-27T11:46:05.511Z,16.73
2022-11-27T11:48:31.784Z,17.19
2022-11-27T11:50:58.031Z,17.85
2022-11-27T11:53:24.269Z,17.53
2022-11-27T11:55:50.519Z,17.26
2022-11-27T11:58:16.765Z,17.64
2022-11-27T12:01:04.737Z,16.99
2022-11-27T12:03:29.258Z,17.20
2022-11-27T12:05:55.496Z,18.07
2022-11-27T12:08:21.757Z,17.65
2022-11-27T12:10:48.007Z,17.71
2022-11-27T12:13:14.257Z,33.92
2022-11-27T12:15:40.500Z,33.77
2022-11-27T12:18:06.734Z,24.29
2022-11-27T12:20:33.002Z,26.32
2022-11-27T12:22:59.268Z,27.41
2022-11-27T12:25:25.530Z,22.74
2022-11-27T12:27:51.769Z,21.53
2022-11-27T12:30:18.028Z,18.78
2022-11-27T12:32:44.290Z,18.56
2022-11-27T12:35:10.533Z,21.10
2022-11-27T12:37:36.805Z,19.64
2022-11-27T12:40:03.059Z,20.76
2022-11-27T12:42:29.320Z,19.30
2022-11-27T12:44:55.579Z,18.41
2022-11-27T12:47:21.820Z,17.98
2022-11-27T12:49:48.058Z,18.12
2022-11-27T12:52:14.298Z,18.66
2022-11-27T12:54:40.658Z,18.01
2022-11-27T12:57:07.022Z,18.42
2022-11-27T12:59:33.265Z,17.64
2022-11-27T13:01:59.628Z,18.09
2022-11-27T13:04:25.994Z,19.14
2022-11-27T13:06:52.242Z,18.34
2022-11-27T13:09:18.521Z,18.35
2022-11-27T13:11:44.784Z,17.79
2022-11-27T13:14:11.030Z,17.77
2022-11-27T13:16:37.335Z,18.71
2022-11-27T13:19:03.621Z,18.00
2022-11-27T13:21:29.884Z,18.26
2022-11-27T13:23:56.150Z,17.82
2022-11-27T13:26:26.273Z,17.54
2022-11-27T13:28:52.961Z,17.92
2022-11-27T13:31:19.267Z,17.52
2022-11-27T13:33:45.548Z,16.78
2022-11-27T13:36:11.820Z,17.53
2022-11-27T13:38:38.084Z,17.70
2022-11-27T13:41:04.417Z,17.56
2022-11-27T13:43:30.684Z,18.13
2022-11-27T13:45:56.960Z,17.23
2022-11-27T13:48:23.214Z,19.21
2022-11-27T13:50:49.467Z,20.18
2022-11-27T13:53:15.728Z,21.40
2022-11-27T13:55:41.973Z,20.96
2022-11-27T13:58:08.220Z,18.11
2022-11-27T14:00:34.472Z,17.58
2022-11-27T14:03:00.712Z,17.51
2022-11-27T14:05:26.981Z,17.66
2022-11-27T14:07:53.275Z,17.42
2022-11-27T14:10:19.575Z,16.81
2022-11-27T14:12:45.909Z,17.29
2022-11-27T14:15:12.145Z,17.65
2022-11-27T14:17:38.404Z,18.58
2022-11-27T14:20:04.665Z,18.24
2022-11-27T14:22:30.921Z,17.86
2022-11-27T14:24:57.171Z,18.21
2022-11-27T14:27:23.424Z,18.18
2022-11-27T14:29:49.681Z,17.86
2022-11-27T14:32:15.931Z,16.97
2022-11-27T14:34:42.598Z,17.33
2022-11-27T14:37:09.100Z,17.64
2022-11-27T14:39:35.347Z,18.15
2022-11-27T14:42:01.599Z,17.06
2022-11-27T14:44:27.836Z,17.97
2022-11-27T14:46:54.165Z,18.02
2022-11-27T14:49:20.469Z,18.17
2022-11-27T14:51:46.725Z,18.53
2022-11-27T14:54:12.966Z,17.96
2022-11-27T14:56:39.226Z,19.10
2022-11-27T14:59:05.557Z,18.94
2022-11-27T15:01:31.827Z,18.33
2022-11-27T15:03:58.106Z,17.53
2022-11-27T15:06:24.381Z,17.69
2022-11-27T15:09:09.153Z,18.11
2022-11-27T15:11:54.999Z,17.27
2022-11-27T15:14:22.613Z,17.21
2022-11-27T15:16:48.917Z,16.69
2022-11-27T15:19:15.247Z,16.31
2022-11-27T15:21:41.493Z,16.91
2022-11-27T15:24:07.745Z,16.57
2022-11-27T15:26:33.987Z,16.43
2022-11-27T15:29:00.344Z,15.82
2022-11-27T15:31:26.699Z,16.58
2022-11-27T15:33:53.021Z,16.27
2022-11-27T15:36:19.270Z,16.00
2022-11-27T15:38:45.524Z,16.42
2022-11-27T15:41:11.762Z,15.89
2022-11-27T15:43:38.014Z,16.01
2022-11-27T15:46:04.300Z,16.43
2022-11-27T15:48:30.584Z,16.19
2022-11-27T15:50:56.837Z,16.46
2022-11-27T15:53:23.072Z,16.84
2022-11-27T15:55:49.320Z,15.95
2022-11-27T15:58:15.635Z,16.58
2022-11-27T16:00:41.976Z,16.69
2022-11-27T16:03:08.242Z,15.79
2022-11-27T16:05:34.477Z,16.14
2022-11-27T16:08:00.803Z,15.34
2022-11-27T16:10:27.081Z,15.66
2022-11-27T16:12:53.344Z,16.14
2022-11-27T16:15:21.700Z,16.33
2022-11-27T16:17:49.483Z,15.43
2022-11-27T16:20:15.781Z,15.78
2022-11-27T16:22:42.025Z,16.15
2022-11-27T16:25:08.279Z,15.94
2022-11-27T16:27:34.541Z,16.37
2022-11-27T16:30:00.801Z,16.09
2022-11-27T16:32:27.066Z,17.04
2022-11-27T16:34:53.309Z,16.50
2022-11-27T16:37:19.546Z,16.44
2022-11-27T16:39:45.800Z,15.77
2022-11-27T16:42:12.047Z,16.11
2022-11-27T16:44:38.304Z,15.40
2022-11-27T16:47:04.585Z,15.70
2022-11-27T16:49:30.830Z,16.55
2022-11-27T16:51:57.076Z,16.82
2022-11-27T16:54:23.332Z,17.03
2022-11-27T16:56:49.585Z,17.44
2022-11-27T16:59:15.838Z,16.57
2022-11-27T17:01:42.273Z,18.80
2022-11-27T17:04:08.655Z,22.11
2022-11-27T17:06:34.909Z,22.69
2022-11-27T17:09:01.167Z,23.36
2022-11-27T17:11:27.427Z,23.21
2022-11-27T17:13:53.693Z,19.30
2022-11-27T17:16:20.022Z,16.51
2022-11-27T17:18:46.301Z,16.14
2022-11-27T17:21:12.663Z,15.88
2022-11-27T17:23:38.917Z,14.74
2022-11-27T17:26:05.157Z,14.65
2022-11-27T17:28:31.424Z,14.49
2022-11-27T17:30:57.683Z,13.80
2022-11-27T17:33:23.925Z,14.68
2022-11-27T17:35:50.170Z,14.06
2022-11-27T17:38:16.431Z,14.88
2022-11-27T17:40:42.691Z,16.21
2022-11-27T17:43:08.952Z,17.62
2022-11-27T17:45:35.265Z,18.53
2022-11-27T17:48:01.568Z,18.96
2022-11-27T17:50:27.813Z,18.30
2022-11-27T17:52:54.121Z,18.31
2022-11-27T17:55:20.358Z,21.68
2022-11-27T17:57:46.625Z,20.63
2022-11-27T18:00:12.864Z,19.72
2022-11-27T18:02:39.177Z,18.38
2022-11-27T18:05:05.485Z,16.54
2022-11-27T18:07:31.763Z,16.50
2022-11-27T18:09:58.129Z,18.35
2022-11-27T18:12:24.435Z,18.10
2022-11-27T18:14:50.677Z,17.12
2022-11-27T18:17:16.924Z,16.17
2022-11-27T18:19:43.445Z,16.16
2022-11-27T18:22:09.868Z,17.37
2022-11-27T18:24:36.127Z,17.65
2022-11-27T18:27:09.675Z,18.05
2022-11-27T18:29:36.053Z,18.00
2022-11-27T18:32:02.339Z,18.99
2022-11-27T18:34:28.589Z,19.31
2022-11-27T18:36:54.825Z,19.50
2022-11-27T18:39:21.072Z,18.38
2022-11-27T18:41:47.333Z,18.28
2022-11-27T18:44:13.621Z,19.80
2022-11-27T18:46:39.918Z,20.15
2022-11-27T18:49:06.249Z,21.31
2022-11-27T18:51:32.524Z,20.38
2022-11-27T18:53:58.764Z,19.38
2022-11-27T18:56:25.018Z,17.54
2022-11-27T18:58:51.266Z,17.34
2022-11-27T19:01:17.638Z,15.50
2022-11-27T19:03:43.957Z,14.79
2022-11-27T19:06:10.201Z,15.82
2022-11-27T19:08:36.438Z,16.65
2022-11-27T19:11:02.673Z,17.56
2022-11-27T19:13:28.925Z,17.78
2022-11-27T19:15:55.169Z,17.88
2022-11-27T19:18:21.405Z,18.74
2022-11-27T19:20:47.649Z,18.22
2022-11-27T19:23:13.913Z,17.37
2022-11-27T19:25:40.162Z,19.01
2022-11-27T19:28:06.414Z,21.51
2022-11-27T19:30:34.111Z,21.44
2022-11-27T19:33:00.512Z,22.36
2022-11-27T19:35:26.786Z,20.71
2022-11-27T19:37:53.033Z,18.53
2022-11-27T19:40:19.270Z,17.38
2022-11-27T19:42:45.529Z,16.44
2022-11-27T19:45:11.769Z,16.60
2022-11-27T19:47:38.029Z,16.74
2022-11-27T19:50:04.298Z,17.65
2022-11-27T19:52:30.542Z,17.20
2022-11-27T19:54:56.780Z,17.08
2022-11-27T19:57:23.029Z,17.24
2022-11-27T19:59:49.290Z,16.92
2022-11-27T20:02:15.577Z,17.42
2022-11-27T20:04:42.193Z,20.07
2022-11-27T20:07:08.565Z,20.82
2022-11-27T20:09:34.819Z,21.62
2022-11-27T20:12:01.167Z,20.26
2022-11-27T20:14:27.418Z,17.92
2022-11-27T20:16:53.712Z,17.12
2022-11-27T20:19:20.027Z,14.57
2022-11-27T20:21:46.276Z,14.26
2022-11-27T20:24:12.514Z,13.58
2022-11-27T20:26:42.640Z,12.41
2022-11-27T20:29:09.339Z,12.14
2022-11-27T20:31:35.635Z,12.23
2022-11-27T20:34:01.935Z,12.05
2022-11-27T20:36:28.177Z,11.87
2022-11-27T20:38:54.425Z,11.47
2022-11-27T20:41:20.761Z,11.63
2022-11-27T20:43:47.048Z,11.16
2022-11-27T20:46:13.389Z,11.35
2022-11-27T20:48:39.686Z,17.57
2022-11-27T20:51:05.928Z,17.33
2022-11-27T20:53:32.177Z,16.32
2022-11-27T20:55:58.434Z,15.55
2022-11-27T20:58:24.670Z,15.72
2022-11-27T21:00:50.945Z,16.80
2022-11-27T21:03:17.250Z,16.81
2022-11-27T21:05:43.490Z,17.66
2022-11-27T21:08:09.745Z,17.04
2022-11-27T21:10:35.991Z,16.38
2022-11-27T21:13:02.248Z,15.61
2022-11-27T21:15:28.491Z,15.90
2022-11-27T21:17:54.728Z,16.34
2022-11-27T21:20:20.993Z,16.50
2022-11-27T21:22:47.236Z,16.32
2022-11-27T21:25:13.496Z,15.79
2022-11-27T21:27:39.745Z,14.85
2022-11-27T21:30:05.980Z,13.47
2022-11-27T21:32:32.237Z,13.32
2022-11-27T21:34:58.484Z,13.47
2022-11-27T21:37:24.718Z,13.17
2022-11-27T21:39:50.957Z,13.17
2022-11-27T21:42:17.194Z,12.31
2022-11-27T21:44:43.560Z,12.39
2022-11-27T21:47:09.971Z,12.79
2022-11-27T21:49:36.240Z,12.81
2022-11-27T21:52:02.469Z,12.82
2022-11-27T21:54:28.732Z,13.33
2022-11-27T21:56:54.969Z,12.90
2022-11-27T21:59:21.204Z,13.58
2022-11-27T22:01:47.542Z,14.08
2022-11-27T22:04:13.878Z,15.16
2022-11-27T22:06:40.122Z,15.27
2022-11-27T22:09:09.306Z,15.57
2022-11-27T22:11:39.768Z,16.13
2022-11-27T22:14:06.002Z,15.53
2022-11-27T22:16:32.287Z,15.16
2022-11-27T22:18:58.561Z,15.62
2022-11-27T22:21:24.813Z,15.67
2022-11-27T22:23:51.049Z,15.11
2022-11-27T22:26:17.290Z,15.58
2022-11-27T22:28:43.520Z,15.17
2022-11-27T22:31:09.905Z,15.25
2022-11-27T22:33:36.308Z,14.83
2022-11-27T22:36:02.551Z,14.93
2022-11-27T22:38:28.803Z,15.12
2022-11-27T22:40:55.073Z,15.06
2022-11-27T22:43:21.356Z,14.81
2022-11-27T22:45:47.770Z,15.02
2022-11-27T22:48:14.076Z,14.11
2022-11-27T22:50:40.329Z,14.37
2022-11-27T22:53:06.589Z,14.79
2022-11-27T22:55:32.825Z,15.20
2022-11-27T22:57:59.116Z,15.66
2022-11-27T23:00:25.365Z,14.07
2022-11-27T23:02:51.689Z,14.04
2022-11-27T23:05:17.969Z,13.06
2022-11-27T23:07:44.274Z,12.92
2022-11-27T23:10:10.610Z,12.81
2022-11-27T23:12:36.841Z,13.37
2022-11-27T23:15:03.099Z,13.25
2022-11-27T23:17:29.332Z,12.63
2022-11-27T23:19:55.571Z,12.69
2022-11-27T23:22:21.833Z,12.44
2022-11-27T23:24:48.108Z,13.29
2022-11-27T23:27:14.351Z,13.95
2022-11-27T23:29:40.614Z,13.82
2022-11-27T23:32:06.896Z,13.54
2022-11-27T23:34:33.179Z,13.91
2022-11-27T23:36:59.436Z,14.12
2022-11-27T23:39:25.875Z,14.81
2022-11-27T23:41:52.138Z,15.29
2022-11-27T23:44:18.377Z,16.35
2022-11-27T23:46:44.638Z,16.80
2022-11-27T23:49:10.886Z,17.18
2022-11-27T23:51:37.135Z,17.00
2022-11-27T23:54:03.366Z,17.62
2022-11-27T23:56:29.632Z,18.01
2022-11-27T23:58:55.937Z,18.13
